createdAt,value
2022-10-07T00:01:31.908Z,17.40
2022-10-07T00:03:34.926Z,17.23
2022-10-07T00:05:37.167Z,14.80
2022-10-07T00:07:39.276Z,14.82
2022-10-07T00:09:41.782Z,18.02
2022-10-07T00:13:47.829Z,12.63
2022-10-07T00:15:49.910Z,15.02
2022-10-07T00:17:52.053Z,16.10
2022-10-07T00:19:54.163Z,14.73
2022-10-07T00:21:56.370Z,14.85
2022-10-07T00:23:58.927Z,14.30
2022-10-07T00:26:02.886Z,14.57
2022-10-07T00:28:05.777Z,15.15
2022-10-07T00:30:10.102Z,13.48
2022-10-07T00:32:12.241Z,13.40
2022-10-07T00:34:14.920Z,14.95
2022-10-07T00:36:23.867Z,17.13
2022-10-07T00:38:27.003Z,14.07
2022-10-07T00:40:29.082Z,17.10
2022-10-07T00:42:32.511Z,18.33
2022-10-07T00:44:42.151Z,15.73
2022-10-07T00:46:44.260Z,18.27
2022-10-07T00:48:47.064Z,14.70
2022-10-07T00:50:52.811Z,15.80
2022-10-07T00:52:59.429Z,15.45
2022-10-07T00:55:06.808Z,14.40
2022-10-07T00:57:09.667Z,14.27
2022-10-07T00:59:14.352Z,13.05
2022-10-07T01:01:18.462Z,16.40
2022-10-07T01:03:21.233Z,17.05
2022-10-07T01:05:23.378Z,15.82
2022-10-07T01:07:26.894Z,16.27
2022-10-07T01:09:29.123Z,15.93
2022-10-07T01:14:16.730Z,17.38
2022-10-07T01:16:52.113Z,15.45
2022-10-07T01:19:06.463Z,18.33
2022-10-07T01:21:33.976Z,22.80
2022-10-07T01:23:56.534Z,13.30
2022-10-07T01:26:27.625Z,18.27
2022-10-07T01:28:40.291Z,15.57
2022-10-07T01:30:50.478Z,16.52
2022-10-07T01:33:01.567Z,19.52
2022-10-07T01:35:10.239Z,16.70
2022-10-07T01:37:18.055Z,15.45
2022-10-07T01:39:27.781Z,17.40
2022-10-07T01:41:31.676Z,15.43
2022-10-07T01:43:34.603Z,17.02
2022-10-07T01:45:41.530Z,17.48
2022-10-07T01:47:44.959Z,14.50
2022-10-07T01:49:47.411Z,13.60
2022-10-07T01:52:14.505Z,17.13
2022-10-07T01:54:22.754Z,20.98
2022-10-07T01:56:36.191Z,15.30
2022-10-07T01:59:32.528Z,14.85
2022-10-07T02:01:57.184Z,15.10
2022-10-07T02:04:20.244Z,15.95
2022-10-07T02:06:36.970Z,17.02
2022-10-07T02:08:50.812Z,16.25
2022-10-07T02:11:11.708Z,16.42
2022-10-07T02:13:29.043Z,15.68
2022-10-07T02:15:45.260Z,15.05
2022-10-07T02:17:52.483Z,16.17
2022-10-07T02:19:56.734Z,15.45
2022-10-07T02:22:02.918Z,17.90
2022-10-07T02:24:11.055Z,15.38
2022-10-07T02:26:17.054Z,16.08
2022-10-07T02:28:23.848Z,16.48
2022-10-07T02:30:27.639Z,15.30
2022-10-07T02:32:31.749Z,15.10
2022-10-07T02:34:36.054Z,12.82
2022-10-07T02:36:44.728Z,12.13
2022-10-07T02:38:47.198Z,11.52
2022-10-07T02:42:59.833Z,17.97
2022-10-07T02:45:18.215Z,13.60
2022-10-07T02:47:51.572Z,13.07
2022-10-07T02:49:54.361Z,12.37
2022-10-07T02:52:06.968Z,12.18
2022-10-07T02:54:10.738Z,11.55
2022-10-07T02:56:13.388Z,12.10
2022-10-07T02:58:17.347Z,13.10
2022-10-07T03:00:20.537Z,10.82
2022-10-07T03:02:46.545Z,12.23
2022-10-07T03:04:49.156Z,11.63
2022-10-07T03:06:51.496Z,9.85
2022-10-07T03:10:55.676Z,10.47
2022-10-07T03:12:59.062Z,9.77
2022-10-07T03:15:01.535Z,13.85
2022-10-07T03:17:05.341Z,13.77
2022-10-07T03:21:18.731Z,12.65
2022-10-07T03:23:26.575Z,12.30
2022-10-07T03:25:28.686Z,10.68
2022-10-07T03:27:31.151Z,15.73
2022-10-07T03:29:37.190Z,13.80
2022-10-07T03:31:42.477Z,13.63
2022-10-07T03:33:44.724Z,10.95
2022-10-07T03:35:47.258Z,15.40
2022-10-07T03:37:49.305Z,16.05
2022-10-07T03:39:52.969Z,15.15
2022-10-07T03:41:57.579Z,13.50
2022-10-07T03:44:00.428Z,14.55
2022-10-07T03:46:04.437Z,13.45
2022-10-07T03:48:09.262Z,15.45
2022-10-07T03:50:11.293Z,12.60
2022-10-07T03:52:13.699Z,15.40
2022-10-07T03:54:16.098Z,12.73
2022-10-07T03:56:18.281Z,13.55
2022-10-07T03:58:20.498Z,10.13
2022-10-07T04:00:24.969Z,12.85
2022-10-07T04:02:30.263Z,16.42
2022-10-07T04:06:34.901Z,10.43
2022-10-07T04:08:41.352Z,11.48
2022-10-07T04:10:44.192Z,13.50
2022-10-07T04:12:49.114Z,16.42
2022-10-07T04:14:51.599Z,9.38
2022-10-07T04:21:01.242Z,7.57
2022-10-07T04:23:05.770Z,8.23
2022-10-07T04:25:30.074Z,11.43
2022-10-07T04:27:50.771Z,8.13
2022-10-07T04:29:53.919Z,6.07
2022-10-07T04:31:59.318Z,7.28
2022-10-07T04:34:01.930Z,10.98
2022-10-07T04:36:10.676Z,8.05
2022-10-07T04:38:33.201Z,10.40
2022-10-07T04:40:45.803Z,7.53
2022-10-07T04:43:07.809Z,7.07
2022-10-07T04:45:10.647Z,7.07
2022-10-07T04:47:15.327Z,8.32
2022-10-07T04:49:17.681Z,9.30
2022-10-07T04:53:25.001Z,8.15
2022-10-07T04:55:33.297Z,8.95
2022-10-07T04:57:38.665Z,6.75
2022-10-07T04:59:43.027Z,6.72
2022-10-07T05:01:48.977Z,6.93
2022-10-07T05:03:52.589Z,4.88
2022-10-07T05:06:05.808Z,7.55
2022-10-07T05:08:15.073Z,5.45
2022-10-07T05:10:19.999Z,5.65
2022-10-07T05:12:26.017Z,7.15
2022-10-07T05:14:29.162Z,4.45
2022-10-07T05:16:34.121Z,6.63
2022-10-07T05:18:39.674Z,6.10
2022-10-07T05:20:47.646Z,5.03
2022-10-07T05:22:50.256Z,5.10
2022-10-07T05:24:53.077Z,6.47
2022-10-07T05:28:57.664Z,6.97
2022-10-07T05:31:12.167Z,7.32
2022-10-07T05:33:16.659Z,11.13
2022-10-07T05:35:19.480Z,4.88
2022-10-07T05:39:23.881Z,5.07
2022-10-07T05:41:45.790Z,6.68
2022-10-07T05:43:51.251Z,5.90
2022-10-07T05:46:01.371Z,6.78
2022-10-07T05:48:05.602Z,7.00
2022-10-07T05:50:08.415Z,11.07
2022-10-07T05:52:10.860Z,7.97
2022-10-07T05:54:13.923Z,6.38
2022-10-07T05:56:22.472Z,10.48
2022-10-07T05:58:26.667Z,8.20
2022-10-07T06:00:29.956Z,11.07
2022-10-07T06:02:32.790Z,11.02
2022-10-07T06:04:35.512Z,4.78
2022-10-07T06:06:38.698Z,8.95
2022-10-07T06:08:44.338Z,9.55
2022-10-07T06:13:09.180Z,7.03
2022-10-07T06:15:14.198Z,7.78
2022-10-07T06:17:19.413Z,6.47
2022-10-07T06:19:23.223Z,6.03
2022-10-07T06:21:29.072Z,6.30
2022-10-07T06:23:35.991Z,7.85
2022-10-07T06:25:39.404Z,6.03
2022-10-07T06:27:53.462Z,6.32
2022-10-07T06:30:08.406Z,7.28
2022-10-07T06:32:11.076Z,6.97
2022-10-07T06:34:14.485Z,7.93
2022-10-07T06:36:17.558Z,10.10
2022-10-07T06:38:21.516Z,9.30
2022-10-07T06:40:23.950Z,7.90
2022-10-07T06:42:27.131Z,5.75
2022-10-07T06:44:54.002Z,12.93
2022-10-07T06:46:58.164Z,6.90
2022-10-07T06:49:01.168Z,7.53
2022-10-07T06:53:07.569Z,9.60
2022-10-07T06:55:09.983Z,7.25
2022-10-07T06:57:33.507Z,7.45
2022-10-07T06:59:35.321Z,7.60
2022-10-07T07:01:46.188Z,11.57
2022-10-07T07:03:48.589Z,6.35
2022-10-07T07:08:04.629Z,4.88
2022-10-07T07:10:07.639Z,10.80
2022-10-07T07:12:12.921Z,9.82
2022-10-07T07:14:19.228Z,7.28
2022-10-07T07:16:27.683Z,10.02
2022-10-07T07:18:30.444Z,4.68
2022-10-07T07:22:41.519Z,6.45
2022-10-07T07:24:43.704Z,7.45
2022-10-07T07:26:46.696Z,13.63
2022-10-07T07:28:59.224Z,6.65
2022-10-07T07:31:11.306Z,6.75
2022-10-07T07:33:13.730Z,6.97
2022-10-07T07:35:16.216Z,4.85
2022-10-07T07:37:18.381Z,7.82
2022-10-07T07:39:24.629Z,5.20
2022-10-07T07:41:36.413Z,5.90
2022-10-07T07:43:38.643Z,6.18
2022-10-07T07:45:40.856Z,6.38
2022-10-07T07:47:43.871Z,8.20
2022-10-07T07:49:46.215Z,9.82
2022-10-07T07:51:56.228Z,5.28
2022-10-07T07:54:03.598Z,8.45
2022-10-07T07:56:06.109Z,9.23
2022-10-07T07:58:11.765Z,10.20
2022-10-07T08:00:16.342Z,10.57
2022-10-07T08:02:32.111Z,6.90
2022-10-07T08:06:37.779Z,7.75
2022-10-07T08:08:43.618Z,8.55
2022-10-07T08:10:51.687Z,13.60
2022-10-07T08:12:55.089Z,5.82
2022-10-07T08:14:58.173Z,7.25
2022-10-07T08:17:00.358Z,10.85
2022-10-07T08:19:03.016Z,6.38
2022-10-07T08:21:06.167Z,5.63
2022-10-07T08:23:08.756Z,9.45
2022-10-07T08:25:11.350Z,7.63
2022-10-07T08:27:17.347Z,7.38
2022-10-07T08:29:21.224Z,3.55
2022-10-07T08:31:27.464Z,7.93
2022-10-07T08:33:33.509Z,6.55
2022-10-07T08:35:35.592Z,5.65
2022-10-07T08:37:37.715Z,8.05
2022-10-07T08:39:39.795Z,9.63
2022-10-07T08:42:25.168Z,10.50
2022-10-07T08:44:40.031Z,7.53
2022-10-07T08:47:15.002Z,6.53
2022-10-07T08:49:24.999Z,6.25
2022-10-07T08:51:42.547Z,9.50
2022-10-07T08:53:47.543Z,6.57
2022-10-07T08:55:54.505Z,3.58
2022-10-07T08:58:08.724Z,8.88
2022-10-07T09:00:13.863Z,6.47
2022-10-07T09:02:45.278Z,5.50
2022-10-07T09:05:28.569Z,8.63
2022-10-07T09:09:38.560Z,7.30
2022-10-07T09:11:44.262Z,11.35
2022-10-07T09:13:52.811Z,8.13
2022-10-07T09:16:09.016Z,12.82
2022-10-07T09:18:19.699Z,5.13
2022-10-07T09:20:31.967Z,12.07
2022-10-07T09:22:39.729Z,8.27
2022-10-07T09:26:51.372Z,13.02
2022-10-07T09:28:53.871Z,6.70
2022-10-07T09:31:04.194Z,9.93
2022-10-07T09:33:13.704Z,7.03
2022-10-07T09:35:18.922Z,8.50
2022-10-07T09:37:24.322Z,9.45
2022-10-07T09:39:27.482Z,8.35
2022-10-07T09:41:35.645Z,6.45
2022-10-07T09:43:43.293Z,4.93
2022-10-07T09:45:47.146Z,12.20
2022-10-07T09:48:07.773Z,5.05
2022-10-07T09:50:39.037Z,5.82
2022-10-07T09:52:55.976Z,7.10
2022-10-07T09:55:34.931Z,4.40
2022-10-07T09:57:37.127Z,5.82
2022-10-07T09:59:40.337Z,5.28
2022-10-07T10:01:48.738Z,8.95
2022-10-07T10:03:58.362Z,5.53
2022-10-07T10:06:02.791Z,8.05
2022-10-07T10:08:27.115Z,4.38
2022-10-07T10:10:39.493Z,7.78
2022-10-07T10:12:51.856Z,8.82
2022-10-07T10:15:00.632Z,4.18
2022-10-07T10:17:04.822Z,4.70
2022-10-07T10:19:27.825Z,5.72
2022-10-07T10:21:36.931Z,9.90
2022-10-07T10:23:44.147Z,4.57
2022-10-07T10:26:18.245Z,7.20
2022-10-07T10:28:47.714Z,8.13
2022-10-07T10:30:59.128Z,4.95
2022-10-07T10:33:14.866Z,5.47
2022-10-07T10:35:20.366Z,7.82
2022-10-07T10:37:30.259Z,5.13
2022-10-07T10:39:52.464Z,6.43
2022-10-07T10:41:58.239Z,14.15
2022-10-07T10:44:31.171Z,8.38
2022-10-07T10:48:46.019Z,7.97
2022-10-07T10:51:31.953Z,7.18
2022-10-07T10:54:07.061Z,8.25
2022-10-07T10:56:23.600Z,9.88
2022-10-07T10:59:09.668Z,7.90
2022-10-07T11:01:35.104Z,11.63
2022-10-07T11:03:37.206Z,8.98
2022-10-07T11:05:42.667Z,8.38
2022-10-07T11:07:50.681Z,5.65
2022-10-07T11:10:00.780Z,6.30
2022-10-07T11:12:07.106Z,10.32
2022-10-07T11:14:20.283Z,8.23
2022-10-07T11:16:31.033Z,6.78
2022-10-07T11:18:39.651Z,10.45
2022-10-07T11:20:48.228Z,9.60
2022-10-07T11:23:05.611Z,9.73
2022-10-07T11:25:24.330Z,11.68
2022-10-07T11:27:33.544Z,6.85
2022-10-07T11:29:35.673Z,8.55
2022-10-07T11:31:42.654Z,8.25
2022-10-07T11:34:23.293Z,7.70
2022-10-07T11:36:40.011Z,14.65
2022-10-07T11:38:42.921Z,6.90
2022-10-07T11:40:54.981Z,6.63
2022-10-07T11:43:06.302Z,3.42
2022-10-07T11:45:33.621Z,9.15
2022-10-07T11:47:45.986Z,5.80
2022-10-07T11:49:58.006Z,9.70
2022-10-07T11:52:06.034Z,4.43
2022-10-07T11:54:14.412Z,9.18
2022-10-07T11:56:27.202Z,11.43
2022-10-07T11:58:36.005Z,7.20
2022-10-07T12:00:40.568Z,8.93
2022-10-07T12:02:47.280Z,7.28
2022-10-07T12:04:49.551Z,7.03
2022-10-07T12:07:28.976Z,9.07
2022-10-07T12:09:54.459Z,10.18
2022-10-07T12:11:57.086Z,12.85
2022-10-07T12:14:41.009Z,7.97
2022-10-07T12:16:54.436Z,13.20
2022-10-07T12:19:09.877Z,10.60
2022-10-07T12:21:12.471Z,12.02
2022-10-07T12:23:17.713Z,8.55
2022-10-07T12:25:42.964Z,9.93
2022-10-07T12:27:46.534Z,7.43
2022-10-07T12:30:02.626Z,8.35
2022-10-07T12:33:01.230Z,10.77
2022-10-07T12:35:34.816Z,10.07
2022-10-07T12:37:45.624Z,6.63
2022-10-07T12:39:47.938Z,9.98
2022-10-07T12:43:56.124Z,6.38
2022-10-07T12:48:02.408Z,8.93
2022-10-07T12:50:13.063Z,11.60
2022-10-07T12:52:30.490Z,8.68
2022-10-07T12:54:37.605Z,8.98
2022-10-07T12:56:44.006Z,5.03
2022-10-07T12:59:14.465Z,6.28
2022-10-07T13:01:37.167Z,8.68
2022-10-07T13:04:05.936Z,8.95
2022-10-07T13:06:36.970Z,9.63
2022-10-07T13:09:02.876Z,4.55
2022-10-07T13:13:34.850Z,7.35
2022-10-07T13:15:49.718Z,7.00
2022-10-07T13:17:58.685Z,9.73
2022-10-07T13:20:34.335Z,9.85
2022-10-07T13:22:36.569Z,9.90
2022-10-07T13:24:59.876Z,10.55
2022-10-07T13:27:02.126Z,10.00
2022-10-07T13:29:05.931Z,8.80
2022-10-07T13:31:23.108Z,7.78
2022-10-07T13:33:31.894Z,15.85
2022-10-07T13:35:39.340Z,9.48
2022-10-07T13:37:46.856Z,10.95
2022-10-07T13:39:48.906Z,8.90
2022-10-07T13:41:55.703Z,8.90
2022-10-07T13:44:06.256Z,7.53
2022-10-07T13:46:09.943Z,8.13
2022-10-07T13:48:17.357Z,8.27
2022-10-07T13:50:26.651Z,7.88
2022-10-07T13:52:31.671Z,8.07
2022-10-07T13:54:34.743Z,11.00
2022-10-07T13:56:41.898Z,8.13
2022-10-07T13:58:44.474Z,8.60
2022-10-07T14:00:49.101Z,5.57
2022-10-07T14:02:51.695Z,6.72
2022-10-07T14:05:05.213Z,5.47
2022-10-07T14:07:13.143Z,8.55
2022-10-07T14:09:35.424Z,9.65
2022-10-07T14:11:37.757Z,8.32
2022-10-07T14:15:51.924Z,9.85
2022-10-07T14:18:04.697Z,7.38
2022-10-07T14:20:19.131Z,12.60
2022-10-07T14:22:31.431Z,8.45
2022-10-07T14:24:33.667Z,6.85
2022-10-07T14:26:43.789Z,4.95
2022-10-07T14:28:45.973Z,5.22
2022-10-07T14:31:26.688Z,7.70
2022-10-07T14:33:48.819Z,7.25
2022-10-07T14:36:15.448Z,6.32
2022-10-07T14:38:27.985Z,5.88
2022-10-07T14:42:36.358Z,9.15
2022-10-07T14:44:38.687Z,8.00
2022-10-07T14:46:40.914Z,5.35
2022-10-07T14:48:43.232Z,10.88
2022-10-07T14:50:45.314Z,10.55
2022-10-07T14:52:52.560Z,7.30
2022-10-07T14:55:00.651Z,8.73
2022-10-07T14:57:02.823Z,9.95
2022-10-07T14:59:10.778Z,5.88
2022-10-07T15:01:12.942Z,8.05
2022-10-07T15:03:14.960Z,12.63
2022-10-07T15:05:18.092Z,10.48
2022-10-07T15:07:21.510Z,8.23
2022-10-07T15:09:23.720Z,7.35
2022-10-07T15:11:26.393Z,6.63
2022-10-07T15:13:29.266Z,6.05
2022-10-07T15:15:31.717Z,8.15
2022-10-07T15:19:36.012Z,9.90
2022-10-07T15:21:38.228Z,8.90
2022-10-07T15:23:41.154Z,9.63
2022-10-07T15:25:43.489Z,9.80
2022-10-07T15:29:47.721Z,7.15
2022-10-07T15:31:52.333Z,10.52
2022-10-07T15:33:57.304Z,6.18
2022-10-07T15:35:59.794Z,7.25
2022-10-07T15:38:03.977Z,9.75
2022-10-07T15:40:07.727Z,7.65
2022-10-07T15:42:10.059Z,9.40
2022-10-07T15:46:18.692Z,13.27
2022-10-07T15:48:23.356Z,20.42
2022-10-07T15:50:25.630Z,9.48
2022-10-07T15:52:32.557Z,7.85
2022-10-07T15:54:35.745Z,6.43
2022-10-07T15:56:38.057Z,11.13
2022-10-07T16:00:43.270Z,5.90
2022-10-07T16:02:46.664Z,7.72
2022-10-07T16:04:48.989Z,7.07
2022-10-07T16:06:54.209Z,5.47
2022-10-07T16:08:56.905Z,12.48
2022-10-07T16:11:03.879Z,10.35
2022-10-07T16:13:05.932Z,10.90
2022-10-07T16:15:08.337Z,5.93
2022-10-07T16:19:12.421Z,9.47
2022-10-07T16:21:22.991Z,9.52
2022-10-07T16:23:25.118Z,8.77
2022-10-07T16:25:27.325Z,9.18
2022-10-07T16:27:49.511Z,5.93
2022-10-07T16:30:10.009Z,5.60
2022-10-07T16:32:12.154Z,9.45
2022-10-07T16:34:16.463Z,7.13
2022-10-07T16:36:23.431Z,7.68
2022-10-07T16:38:25.523Z,9.45
2022-10-07T16:40:27.578Z,7.00
2022-10-07T16:42:29.803Z,9.85
2022-10-07T16:44:31.935Z,8.02
2022-10-07T16:46:34.495Z,6.05
2022-10-07T16:48:41.545Z,7.00
2022-10-07T16:50:47.988Z,9.43
2022-10-07T16:52:50.264Z,10.57
2022-10-07T16:54:52.675Z,9.68
2022-10-07T16:56:58.349Z,9.85
2022-10-07T16:59:03.949Z,13.57
2022-10-07T17:01:12.854Z,9.88
2022-10-07T17:03:15.245Z,12.75
2022-10-07T17:05:20.845Z,13.48
2022-10-07T17:07:23.033Z,14.20
2022-10-07T17:09:25.448Z,9.27
2022-10-07T17:11:31.315Z,12.20
2022-10-07T17:13:34.516Z,16.33
2022-10-07T17:15:40.154Z,8.18
2022-10-07T17:17:42.358Z,14.55
2022-10-07T17:19:45.182Z,12.02
2022-10-07T17:21:49.512Z,10.35
2022-10-07T17:23:51.840Z,9.15
2022-10-07T17:27:56.721Z,11.68
2022-10-07T17:32:01.031Z,7.47
2022-10-07T17:34:07.772Z,11.45
2022-10-07T17:36:12.131Z,17.30
2022-10-07T17:38:14.631Z,8.30
2022-10-07T17:42:18.924Z,12.43
2022-10-07T17:44:22.040Z,10.02
2022-10-07T17:46:26.794Z,10.30
2022-10-07T17:48:29.200Z,14.90
2022-10-07T17:52:34.041Z,8.90
2022-10-07T17:54:37.384Z,9.52
2022-10-07T17:56:44.651Z,14.20
2022-10-07T17:58:48.691Z,14.02
2022-10-07T18:00:51.994Z,10.75
2022-10-07T18:02:54.172Z,12.15
2022-10-07T18:04:57.313Z,14.88
2022-10-07T18:06:59.514Z,13.25
2022-10-07T18:09:04.979Z,10.98
2022-10-07T18:11:08.297Z,11.60
2022-10-07T18:13:29.110Z,13.68
2022-10-07T18:15:31.355Z,11.98
2022-10-07T18:17:33.704Z,16.25
2022-10-07T18:21:38.319Z,8.63
2022-10-07T18:25:49.082Z,12.77
2022-10-07T18:27:53.051Z,14.85
2022-10-07T18:29:56.110Z,13.32
2022-10-07T18:31:59.122Z,14.95
2022-10-07T18:34:01.378Z,11.70
2022-10-07T18:36:24.928Z,15.55
2022-10-07T18:38:34.084Z,15.55
2022-10-07T18:40:36.395Z,13.95
2022-10-07T18:44:41.118Z,24.38
2022-10-07T18:46:43.395Z,16.77
2022-10-07T18:50:52.141Z,14.00
2022-10-07T18:52:54.290Z,14.13
2022-10-07T18:54:56.587Z,13.30
2022-10-07T18:59:01.067Z,12.13
2022-10-07T19:01:17.994Z,10.45
2022-10-07T19:03:20.414Z,11.18
2022-10-07T19:05:22.727Z,29.73
2022-10-07T19:07:25.655Z,11.25
2022-10-07T19:11:32.961Z,10.52
2022-10-07T19:13:54.479Z,11.07
2022-10-07T19:15:56.828Z,13.10
2022-10-07T19:20:01.151Z,12.95
2022-10-07T19:22:05.437Z,14.90
2022-10-07T19:24:08.018Z,11.55
2022-10-07T19:26:12.470Z,12.57
2022-10-07T19:28:14.995Z,13.75
2022-10-07T19:30:17.343Z,11.60
2022-10-07T19:32:20.259Z,15.32
2022-10-07T19:34:23.033Z,12.70
2022-10-07T19:36:25.718Z,17.92
2022-10-07T19:38:27.970Z,16.30
2022-10-07T19:40:30.211Z,13.50
2022-10-07T19:42:32.919Z,13.32
2022-10-07T19:44:35.109Z,10.77
2022-10-07T19:48:41.175Z,13.75
2022-10-07T19:50:43.437Z,12.88
2022-10-07T19:52:46.378Z,15.38
2022-10-07T19:54:50.021Z,13.07
2022-10-07T19:56:52.382Z,18.10
2022-10-07T20:01:04.692Z,14.15
2022-10-07T20:03:07.121Z,16.33
2022-10-07T20:05:10.022Z,15.07
2022-10-07T20:07:12.613Z,17.98
2022-10-07T20:09:16.858Z,15.02
2022-10-07T20:11:19.485Z,15.27
2022-10-07T20:13:21.896Z,15.93
2022-10-07T20:17:29.664Z,11.13
2022-10-07T20:19:32.203Z,15.70
2022-10-07T20:21:36.631Z,17.92
2022-10-07T20:23:48.513Z,21.80
2022-10-07T20:25:50.642Z,21.43
2022-10-07T20:27:52.867Z,21.98
2022-10-07T20:29:58.164Z,13.45
2022-10-07T20:32:00.324Z,15.75
2022-10-07T20:34:03.834Z,17.35
2022-10-07T20:36:10.618Z,13.25
2022-10-07T20:38:13.009Z,14.45
2022-10-07T20:40:34.943Z,17.50
2022-10-07T20:42:37.165Z,11.27
2022-10-07T20:46:41.672Z,18.02
2022-10-07T20:48:45.777Z,15.20
2022-10-07T20:50:49.006Z,12.45
2022-10-07T20:52:51.487Z,15.45
2022-10-07T20:54:54.411Z,17.83
2022-10-07T20:56:58.230Z,15.52
2022-10-07T20:59:00.505Z,19.65
2022-10-07T21:01:10.438Z,14.05
2022-10-07T21:03:12.869Z,16.58
2022-10-07T21:05:15.672Z,18.15
2022-10-07T21:07:19.010Z,15.45
2022-10-07T21:09:21.142Z,14.90
2022-10-07T21:11:25.630Z,16.05
2022-10-07T21:13:28.420Z,14.32
2022-10-07T21:15:30.560Z,19.55
2022-10-07T21:17:34.523Z,16.80
2022-10-07T21:19:36.857Z,17.95
2022-10-07T21:21:39.439Z,17.00
2022-10-07T21:23:41.492Z,19.77
2022-10-07T21:25:43.669Z,16.65
2022-10-07T21:27:45.836Z,20.23
2022-10-07T21:29:48.927Z,16.38
2022-10-07T21:31:53.284Z,19.40
2022-10-07T21:33:55.464Z,13.88
2022-10-07T21:36:01.717Z,16.42
2022-10-07T21:38:06.589Z,13.45
2022-10-07T21:40:09.166Z,20.63
2022-10-07T21:42:11.336Z,18.52
2022-10-07T21:44:14.253Z,17.33
2022-10-07T21:46:16.785Z,19.77
2022-10-07T21:48:19.687Z,16.25
2022-10-07T21:50:21.921Z,19.67
2022-10-07T21:52:24.284Z,13.95
2022-10-07T21:56:30.844Z,15.82
2022-10-07T21:58:33.668Z,17.08
2022-10-07T22:00:36.448Z,18.42
2022-10-07T22:02:39.484Z,23.38
2022-10-07T22:04:42.553Z,16.27
2022-10-07T22:07:03.263Z,16.08
2022-10-07T22:09:05.405Z,13.43
2022-10-07T22:11:13.854Z,14.30
2022-10-07T22:13:15.960Z,17.10
2022-10-07T22:15:18.155Z,15.05
2022-10-07T22:17:20.326Z,16.27
2022-10-07T22:19:23.167Z,17.95
2022-10-07T22:21:28.219Z,16.77
2022-10-07T22:23:30.513Z,12.93
2022-10-07T22:25:32.617Z,18.88
2022-10-07T22:27:34.873Z,21.83
2022-10-07T22:29:37.588Z,19.00
2022-10-07T22:31:39.646Z,19.67
2022-10-07T22:33:42.913Z,16.25
2022-10-07T22:35:45.101Z,19.92
2022-10-07T22:37:47.202Z,25.48
2022-10-07T22:39:49.649Z,21.77
2022-10-07T22:43:54.139Z,23.07
2022-10-07T22:46:00.015Z,16.88
2022-10-07T22:48:04.017Z,20.73
2022-10-07T22:50:10.070Z,15.00
2022-10-07T22:52:12.229Z,16.75
2022-10-07T22:54:14.590Z,27.25
2022-10-07T22:56:18.134Z,16.88
2022-10-07T22:58:20.277Z,17.88
2022-10-07T23:00:22.623Z,21.30
2022-10-07T23:02:24.921Z,17.17
2022-10-07T23:04:27.142Z,16.08
2022-10-07T23:06:32.716Z,19.02
2022-10-07T23:08:35.357Z,24.20
2022-10-07T23:10:37.632Z,20.85
2022-10-07T23:12:39.911Z,22.60
2022-10-07T23:16:45.476Z,25.65
2022-10-07T23:18:49.342Z,24.85
2022-10-07T23:21:09.834Z,20.45
2022-10-07T23:23:12.549Z,22.23
2022-10-07T23:25:14.941Z,28.10
2022-10-07T23:27:17.523Z,20.25
2022-10-07T23:29:20.661Z,21.17
2022-10-07T23:31:28.529Z,21.63
2022-10-07T23:33:33.497Z,24.50
2022-10-07T23:35:37.184Z,22.90
2022-10-07T23:37:40.281Z,21.38
2022-10-07T23:39:43.444Z,23.15
2022-10-07T23:41:45.937Z,27.52
2022-10-07T23:43:52.706Z,27.30
2022-10-07T23:45:55.428Z,26.30
2022-10-07T23:47:57.537Z,28.20
2022-10-07T23:49:59.947Z,23.23
2022-10-07T23:52:02.171Z,27.88
2022-10-07T23:54:05.174Z,27.60
2022-10-07T23:56:08.102Z,35.90
2022-10-07T23:58:10.310Z,32.15
